• Join FlightAware (Why Join?)
  • Login
  • US Flag 
02:02AM EDT


 

Airport Tracker/Info


-or-


 

Live Flight TrackerFlight Track Log ✈ YZR7462 ✈ 30-Jun-2013 ✈ KLAX - ZSPD / PVG

Flight Track Log - Related Links

Times and Time Zones

All times are in EDT time to prevent confusion due to time zone crossing. See the YZR7462 flight status page for this flight to view local times or setup timezone preferences in your user account.

Time Position Orientation Groundspeed Altitude Reporting Facility
EDT Latitude Longitude Course Direction KTS MPH feet Rate Location/Type
05:36PM 33.9250 -118.5040 263° West 238 274 2,300  Level FlightAware
05:36PM 33.9220 -118.5390 264° West 261 300 2,800 1,680 Climbing FlightAware
05:37PM 33.9180 -118.5860 264° West 275 316 3,900 2,100 Climbing FlightAware
05:37PM 33.9150 -118.6220 264° West 280 322 4,800 2,400 Climbing FlightAware
05:38PM 33.9110 -118.6720 265° West 285 328 6,100 2,400 Climbing FlightAware
05:38PM 33.9100 -118.6890 266° West 286 329 6,500 1,920 Climbing FlightAware
05:38PM 33.9060 -118.7350 264° West 288 331 7,500 1,980 Climbing FlightAware
05:38PM 33.9050 -118.7530 266° West 297 342 7,900 2,520 Climbing FlightAware
05:39PM 33.9020 -118.8040 266° West 301 346 9,100 2,460 Climbing FlightAware
05:39PM 33.9000 -118.8330 265° West 304 350 9,800 2,220 Climbing FlightAware
05:40PM 33.8960 -118.8950 266° West 312 359 11,100 1,800 Climbing FlightAware
05:40PM 33.8970 -118.9300 272° West 328 377 11,500 1,260 Climbing FlightAware
05:41PM 33.9170 -118.9720 300° West 348 400 12,100 1,500 Climbing FlightAware
05:42PM 33.9800 -119.0540 313° West 377 434 13,600 1,620 Climbing FlightAware
05:42PM 34.0290 -119.1210 311° West 390 449 14,800 1,800 Climbing FlightAware
05:43PM 34.0900 -119.2030 312° West 413 475 16,300 1,860 Climbing FlightAware
05:44PM 34.1410 -119.2710 312° West 424 488 17,500 1,560 Climbing FlightAware
05:44PM 34.2020 -119.3530 312° West 447 514 18,500 1,560 Climbing FlightAware
05:45PM 34.2540 -119.4230 312° West 454 522 19,700 1,680 Climbing FlightAware
05:46PM 34.3140 -119.5030 312° West 469 540 20,800 1,560 Climbing FlightAware
05:47PM 34.4010 -119.6220 312° West 488 562 22,300 1,020 Climbing FlightAware
05:47PM 34.4570 -119.7000 311° West 494 568 22,600 1,800 Climbing FlightAware
05:48PM 34.5250 -119.7930 312° West 505 581 24,700 2,460 Climbing FlightAware
05:49PM 34.5960 -119.8870 313° West 510 587 26,100 1,800 Climbing FlightAware
05:49PM 34.6520 -119.9630 312° West 514 592 27,100 1,080 Climbing FlightAware
05:50PM 34.7100 -120.0420 312° West 516 594 27,500 1,680 Climbing FlightAware
05:51PM 34.7930 -120.1540 312° West 528 608 29,600 1,860 Climbing FlightAware
05:52PM 34.8780 -120.2700 312° West 522 601 30,800 1,680 Climbing FlightAware
05:53PM 34.9510 -120.3700 312° West 514 592 32,500 1,200 Climbing FlightAware
05:53PM 34.9980 -120.4370 311° West 514 592 32,500 2,340 Level FlightAware
05:54PM 35.0840 -120.5510 313° West 506 582 35,700 2,460 Climbing FlightAware
05:55PM 35.1470 -120.6380 312° West 506 582 36,000 180 Climbing FlightAware
05:55PM 35.2100 -120.7250 312° West 506 582 36,000  Level FlightAware
05:56PM 35.2790 -120.8200 312° West 506 582 36,000  Level FlightAware
05:57PM 35.3520 -120.9120 314° West 509 586 36,000  Level FlightAware
05:57PM 35.4160 -120.9790 320° Northwest 510 587 36,000  Level FlightAware
05:58PM 35.5016 -121.0690 319° Northwest 511 588 36,000  Level FlightAware ADS-B
05:59PM 35.5554 -121.1280 318° Northwest 511 588 36,000  Level FlightAware ADS-B
05:59PM 35.6136 -121.1930 318° Northwest 510 587 36,000  Level FlightAware ADS-B
06:00PM 35.6630 -121.2480 318° Northwest 509 586 36,000  Level FlightAware
06:01PM 35.7780 -121.3780 317° Northwest 509 586 36,000  Level FlightAware
06:01PM 35.8460 -121.4530 318° Northwest 508 585 36,000  Level FlightAware
06:02PM 35.9150 -121.5310 318° Northwest 507 583 36,000  Level FlightAware
06:03PM 35.9850 -121.6100 318° Northwest 506 582 36,000  Level FlightAware
06:04PM 36.0820 -121.7190 318° Northwest 505 581 36,000  Level FlightAware
06:04PM 36.1566 -121.8030 318° Northwest 505 581 36,000  Level FlightAware ADS-B
06:05PM 36.2097 -121.8630 318° Northwest 506 582 36,000  Level FlightAware ADS-B
06:06PM 36.3134 -121.9810 317° Northwest 506 582 36,000  Level FlightAware ADS-B
06:07PM 36.3730 -122.0500 317° Northwest 507 583 36,000  Level FlightAware ADS-B
06:07PM 36.4420 -122.1280 318° Northwest 508 585 36,000  Level FlightAware
06:08PM 36.5292 -122.2280 317° Northwest 507 583 36,000  Level FlightAware ADS-B
06:09PM 36.5835 -122.2910 317° Northwest 507 583 36,000  Level FlightAware ADS-B
06:09PM 36.6523 -122.3700 317° Northwest 508 585 36,000  Level FlightAware ADS-B
06:10PM 36.7081 -122.4350 317° Northwest 509 586 36,000  Level FlightAware ADS-B
06:10PM 36.7618 -122.4970 317° Northwest 509 586 36,000  Level FlightAware ADS-B
06:11PM 36.8436 -122.5920 317° Northwest 511 588 36,000  Level FlightAware ADS-B
06:12PM 36.9370 -122.7000 317° Northwest 512 589 36,000  Level FlightAware
06:12PM 36.9602 -122.7270 317° Northwest 512 589 36,000  Level FlightAware ADS-B
06:13PM 37.0121 -122.7880 317° Northwest 513 590 36,000  Level FlightAware ADS-B
06:14PM 37.0942 -122.8840 317° Northwest 514 592 36,000  Level FlightAware ADS-B
06:14PM 37.1530 -122.9530 317° Northwest 515 593 36,000  Level FlightAware
06:15PM 37.2220 -123.0340 317° Northwest 516 594 36,000  Level FlightAware
06:17PM 37.4720 -123.3310 317° Northwest 516 594 36,000  Level FlightAware
06:18PM 37.5720 -123.4500 317° Northwest 514 592 36,000  Level FlightAware
06:19PM 37.6410 -123.5320 317° Northwest 515 593 36,000  Level FlightAware
06:20PM 37.7310 -123.6410 316° Northwest 514 592 36,000  Level FlightAware
06:20PM 37.8140 -123.7410 316° Northwest 509 586 36,000  Level FlightAware
06:21PM 37.8840 -123.8240 317° Northwest 507 583 36,000  Level FlightAware
06:22PM 37.9570 -123.9140 316° Northwest 504 580 36,000  Level FlightAware
06:23PM 38.0250 -123.9960 316° Northwest 504 580 36,000  Level FlightAware
06:23PM 38.0970 -124.0840 316° Northwest 504 580 36,000  Level FlightAware
06:24PM 38.1640 -124.1660 316° Northwest 505 581 36,000  Level FlightAware
06:25PM 38.2370 -124.2550 316° Northwest 507 583 36,000  Level FlightAware
06:26PM 38.3200 -124.3590 316° Northwest 507 583 36,000  Level FlightAware
06:26PM 38.3710 -124.4240 315° West 507 583 36,000  Level FlightAware
06:27PM 38.4720 -124.5440 317° Northwest 507 583 36,000  Level FlightAware
06:28PM 38.5420 -124.6310 316° Northwest 507 583 36,000  Level FlightAware
06:28PM 38.6110 -124.7170 316° Northwest 506 582 36,000  Level FlightAware
06:29PM 38.6810 -124.8040 316° Northwest 504 580 36,000  Level FlightAware
06:30PM 38.7570 -124.9000 315° West 503 579 36,000  Level FlightAware
06:30PM 38.8220 -124.9820 316° Northwest 502 578 36,000  Level FlightAware
06:31PM 38.8930 -125.0710 316° Northwest 503 579 36,000  Level FlightAware
06:32PM 38.9600 -125.1550 316° Northwest 503 579 36,000  Level FlightAware
06:33PM 39.0340 -125.2490 315° West 504 580 36,000  Level FlightAware
06:33PM 39.1020 -125.3350 316° Northwest 505 581 36,000  Level FlightAware
06:34PM 39.1560 -125.4040 315° West 505 581 36,000  Level FlightAware
06:35PM 39.2270 -125.4960 315° West 505 581 36,000  Level FlightAware
06:35PM 39.2780 -125.5620 315° West 505 581 36,000  Level FlightAware
06:36PM 39.3450 -125.6490 315° West 505 581 36,000  Level FlightAware
06:37PM 39.3970 -125.7160 315° West 505 581 36,000  Level FlightAware
06:37PM 39.4650 -125.8030 315° West 505 581 36,000  Level FlightAware
06:38PM 39.5150 -125.8690 314° West 505 581 36,000  Level FlightAware
06:39PM 39.5990 -125.9780 315° West 505 581 36,000  Level FlightAware
06:40PM 39.6510 -126.0450 315° West 505 581 36,000  Level FlightAware
06:41PM 39.7190 -126.1330 315° West 505 581 36,000  Level FlightAware
06:41PM 39.7690 -126.1990 315° West 505 581 36,000  Level FlightAware
06:42PM 39.8370 -126.2870 315° West 505 581 36,000  Level FlightAware
06:43PM 39.8870 -126.3520 315° West 505 581 36,000  Level FlightAware
06:43PM 39.9550 -126.4400 315° West 505 581 36,000  Level FlightAware
06:46PM 40.1294 -126.7273 307° West  Level FlightAware Approximate
06:47PM 40.2054 -126.8617 307° West  Level FlightAware Approximate
06:47PM 40.3000 -127.0000 308° West 509 586 36,000  Level Oakland Oceanic (ODAPS)
06:48PM 40.2813 -126.9964 306° West  Level FlightAware Approximate
06:49PM 40.3602 -127.1283 308° West  Level FlightAware Approximate
06:50PM 40.4390 -127.2604 308° West  Level FlightAware Approximate
06:51PM 40.5177 -127.3928 308° West  Level FlightAware Approximate
06:52PM 40.5968 -127.5264 308° West  Level FlightAware Approximate
06:53PM 40.6757 -127.6603 308° West  Level FlightAware Approximate
06:54PM 40.8161 -127.8803 308° West  Level FlightAware Approximate
06:55PM 40.8941 -128.0155 307° West  Level FlightAware Approximate
06:56PM 40.9720 -128.1511 307° West  Level FlightAware Approximate
06:57PM 41.0496 -128.2870 307° West  Level FlightAware Approximate
06:58PM 41.1272 -128.4232 307° West  Level FlightAware Approximate
06:59PM 41.2045 -128.5597 307° West  Level FlightAware Approximate
07:00PM 41.2817 -128.6965 307° West  Level FlightAware Approximate
07:01PM 41.3588 -128.8337 307° West  Level FlightAware Approximate
07:02PM 41.4357 -128.9712 307° West  Level FlightAware Approximate
07:03PM 41.5124 -129.1090 307° West  Level FlightAware Approximate
07:04PM 41.5889 -129.2472 307° West  Level FlightAware Approximate
07:05PM 41.6653 -129.3857 306° West  Level FlightAware Approximate
07:06PM 41.7415 -129.5245 306° West  Level FlightAware Approximate
07:07PM 41.8176 -129.6636 306° West  Level FlightAware Approximate
07:08PM 41.8935 -129.8031 306° West  Level FlightAware Approximate
07:08PM 42.0000 -130.0000 296° West 480 552 36,000  Level Oakland Oceanic (ODAPS)
07:09PM 41.9692 -129.9429 306° West  Level FlightAware Approximate
07:10PM 42.0286 -130.0799 296° West  Level FlightAware Approximate
07:11PM 42.0844 -130.2360 296° West  Level FlightAware Approximate
07:12PM 42.1399 -130.3925 296° West  Level FlightAware Approximate
07:13PM 42.1952 -130.5491 296° West  Level FlightAware Approximate
07:14PM 42.3136 -130.8877 296° West  Level FlightAware Approximate
07:15PM 42.3683 -131.0453 295° West  Level FlightAware Approximate
07:16PM 42.4227 -131.2031 295° West  Level FlightAware Approximate
07:17PM 42.4769 -131.3612 295° West  Level FlightAware Approximate
07:18PM 42.5309 -131.5196 295° West  Level FlightAware Approximate
07:19PM 42.5846 -131.6783 295° West  Level FlightAware Approximate
07:20PM 42.6382 -131.8372 295° West  Level FlightAware Approximate
07:21PM 42.6915 -131.9964 295° West  Level FlightAware Approximate
07:22PM 42.7446 -132.1559 294° West  Level FlightAware Approximate
07:23PM 42.7975 -132.3156 294° West  Level FlightAware Approximate
07:24PM 42.8502 -132.4757 294° West  Level FlightAware Approximate
07:25PM 42.9026 -132.6360 294° West  Level FlightAware Approximate
07:26PM 42.9548 -132.7965 294° West  Level FlightAware Approximate
07:27PM 43.0068 -132.9574 294° West  Level FlightAware Approximate
07:28PM 43.0586 -133.1185 294° West  Level FlightAware Approximate
07:29PM 43.1101 -133.2799 294° West  Level FlightAware Approximate
07:30PM 43.1614 -133.4415 294° West  Level FlightAware Approximate
07:31PM 43.2125 -133.6035 293° West  Level FlightAware Approximate
07:32PM 43.2636 -133.7655 293° West  Level FlightAware Approximate
07:33PM 43.3145 -133.9278 293° West  Level FlightAware Approximate
07:34PM 43.3652 -134.0904 293° West  Level FlightAware Approximate
07:35PM 43.4156 -134.2532 293° West  Level FlightAware Approximate
07:36PM 43.4658 -134.4164 293° West  Level FlightAware Approximate
07:37PM 43.5158 -134.5798 293° West  Level FlightAware Approximate
07:38PM 43.5655 -134.7434 293° West  Level FlightAware Approximate
07:39PM 43.6150 -134.9074 293° West  Level FlightAware Approximate
07:40PM 43.6643 -135.0716 293° West  Level FlightAware Approximate
07:41PM 43.7133 -135.2360 292° West  Level FlightAware Approximate
07:42PM 43.7621 -135.4008 292° West  Level FlightAware Approximate
07:43PM 43.8107 -135.5658 292° West  Level FlightAware Approximate
07:44PM 43.8590 -135.7311 292° West  Level FlightAware Approximate
07:45PM 43.9071 -135.8966 292° West  Level FlightAware Approximate
07:46PM 43.9549 -136.0624 292° West  Level FlightAware Approximate
07:47PM 44.0025 -136.2285 292° West  Level FlightAware Approximate
07:48PM 44.0499 -136.3949 292° West  Level FlightAware Approximate
07:49PM 44.0970 -136.5615 292° West  Level FlightAware Approximate
07:50PM 44.1439 -136.7283 291° West  Level FlightAware Approximate
07:51PM 44.1905 -136.8955 291° West  Level FlightAware Approximate
07:52PM 44.2369 -137.0629 291° West  Level FlightAware Approximate
07:53PM 44.2830 -137.2306 291° West  Level FlightAware Approximate
07:54PM 44.3289 -137.3985 291° West  Level FlightAware Approximate
07:55PM 44.3746 -137.5667 291° West  Level FlightAware Approximate
07:56PM 44.4200 -137.7351 291° West  Level FlightAware Approximate
07:57PM 44.4652 -137.9039 291° West  Level FlightAware Approximate
07:58PM 44.5101 -138.0728 290° West  Level FlightAware Approximate
07:59PM 44.5547 -138.2421 290° West  Level FlightAware Approximate
08:00PM 44.5991 -138.4116 290° West  Level FlightAware Approximate
08:01PM 44.6433 -138.5813 290° West  Level FlightAware Approximate
08:02PM 44.6872 -138.7513 290° West  Level FlightAware Approximate
08:03PM 44.7309 -138.9216 290° West  Level FlightAware Approximate
08:04PM 44.7743 -139.0921 290° West  Level FlightAware Approximate
08:05PM 44.8174 -139.2629 290° West  Level FlightAware Approximate
08:06PM 44.8603 -139.4340 290° West  Level FlightAware Approximate
08:06PM 45.0000 -140.0000 266° West 490 564 36,000  Level Oakland Oceanic (ODAPS)
08:07PM 44.9030 -139.6053 289° West  Level FlightAware Approximate
08:08PM 44.9453 -139.7768 289° West  Level FlightAware Approximate
08:09PM 44.9875 -139.9486 289° West  Level FlightAware Approximate
08:10PM 44.9927 -140.1271 265° West  Level FlightAware Approximate
08:11PM 44.9821 -140.3084 265° West  Level FlightAware Approximate
08:12PM 44.9184 -141.3385 265° West 490 564 36,000  Level FlightAware Transoceanic
08:13PM 44.9055 -141.5294 264° West 490 564 36,000  Level FlightAware Transoceanic
08:14PM 44.8922 -141.7202 264° West 490 564 36,000  Level FlightAware Transoceanic
08:15PM 44.8786 -141.9109 264° West 490 564 36,000  Level FlightAware Transoceanic
08:16PM 44.8647 -142.1015 264° West 490 564 36,000  Level FlightAware Transoceanic
08:17PM 44.8506 -142.2920 264° West 490 564 36,000  Level FlightAware Transoceanic
08:18PM 44.8360 -142.4825 264° West 490 564 36,000  Level FlightAware Transoceanic
08:19PM 44.8212 -142.6728 264° West 490 564 36,000  Level FlightAware Transoceanic
08:20PM 44.8060 -142.8630 264° West 490 564 36,000  Level FlightAware Transoceanic
08:21PM 44.7906 -143.0531 263° West 490 564 36,000  Level FlightAware Transoceanic
08:22PM 44.7748 -143.2432 263° West 490 564 36,000  Level FlightAware Transoceanic
08:23PM 44.7587 -143.4331 263° West 490 564 36,000  Level FlightAware Transoceanic
08:24PM 44.7423 -143.6229 263° West 490 564 36,000  Level FlightAware Transoceanic
08:25PM 44.7256 -143.8127 263° West 490 564 36,000  Level FlightAware Transoceanic
08:26PM 44.7085 -144.0022 263° West 490 564 36,000  Level FlightAware Transoceanic
08:27PM 44.6912 -144.1917 263° West 490 564 36,000  Level FlightAware Transoceanic
08:28PM 44.6735 -144.3811 262° West 490 564 36,000  Level FlightAware Transoceanic
08:29PM 44.6555 -144.5704 262° West 490 564 36,000  Level FlightAware Transoceanic
08:30PM 44.6372 -144.7595 262° West 490 564 36,000  Level FlightAware Transoceanic
08:31PM 44.6186 -144.9485 262° West 490 564 36,000  Level FlightAware Transoceanic
08:32PM 44.5997 -145.1374 262° West 490 564 36,000  Level FlightAware Transoceanic
08:33PM 44.5805 -145.3262 262° West 490 564 36,000  Level FlightAware Transoceanic
08:34PM 44.5609 -145.5148 262° West 490 564 36,000  Level FlightAware Transoceanic
08:35PM 44.5411 -145.7034 262° West 490 564 36,000  Level FlightAware Transoceanic
08:36PM 44.5209 -145.8918 261° West 490 564 36,000  Level FlightAware Transoceanic
08:37PM 44.5005 -146.0800 261° West 490 564 36,000  Level FlightAware Transoceanic
08:38PM 44.4797 -146.2681 261° West 490 564 36,000  Level FlightAware Transoceanic
08:39PM 44.4586 -146.4561 261° West 490 564 36,000  Level FlightAware Transoceanic
08:40PM 44.4372 -146.6440 261° West 490 564 36,000  Level FlightAware Transoceanic
08:41PM 44.4155 -146.8317 261° West 490 564 36,000  Level FlightAware Transoceanic
08:42PM 44.3935 -147.0193 261° West 490 564 36,000  Level FlightAware Transoceanic
08:43PM 44.3712 -147.2067 260° West 490 564 36,000  Level FlightAware Transoceanic
08:44PM 44.3486 -147.3940 260° West 490 564 36,000  Level FlightAware Transoceanic
08:45PM 44.3256 -147.5811 260° West 490 564 36,000  Level FlightAware Transoceanic
08:46PM 44.3024 -147.7681 260° West 490 564 36,000  Level FlightAware Transoceanic
08:47PM 44.2789 -147.9550 260° West 490 564 36,000  Level FlightAware Transoceanic
08:48PM 44.2550 -148.1417 260° West 490 564 36,000  Level FlightAware Transoceanic
08:49PM 44.2309 -148.3282 260° West 490 564 36,000  Level FlightAware Transoceanic
08:50PM 44.2064 -148.5146 260° West 490 564 36,000  Level FlightAware Transoceanic
08:51PM 44.1817 -148.7009 259° West 490 564 36,000  Level FlightAware Transoceanic
08:52PM 44.1566 -148.8869 259° West 490 564 36,000  Level FlightAware Transoceanic
08:53PM 44.1313 -149.0728 259° West 490 564 36,000  Level FlightAware Transoceanic
08:54PM 44.1056 -149.2586 259° West 490 564 36,000  Level FlightAware Transoceanic
08:55PM 44.0797 -149.4442 259° West 490 564 36,000  Level FlightAware Transoceanic
08:56PM 44.0534 -149.6296 259° West 490 564 36,000  Level FlightAware Transoceanic
08:57PM 44.0269 -149.8149 259° West 490 564 36,000  Level FlightAware Transoceanic
08:58PM 44.0000 -150.0000 266° West 490 564 36,000  Level FlightAware Transoceanic
08:59PM 43.9901 -150.1779 265° West 490 564 36,000  Level FlightAware Transoceanic
09:00PM 43.9798 -150.3558 265° West 490 564 36,000  Level FlightAware Transoceanic
09:01PM 43.9693 -150.5336 265° West 490 564 36,000  Level FlightAware Transoceanic
09:02PM 43.9585 -150.7113 265° West 490 564 36,000 1,620 Level FlightAware Transoceanic
09:02PM 44.0000 -150.0000 266° West 463 533 38,000  Climbing Oakland Oceanic (ODAPS)
09:03PM 43.9475 -150.8890 265° West 490 564 36,000 -1,140 Descending FlightAware Transoceanic
09:04PM 43.9362 -151.0666 265° West 490 564 36,000  Level FlightAware Transoceanic
09:05PM 43.9246 -151.2441 265° West 490 564 36,000  Level FlightAware Transoceanic
09:06PM 43.9127 -151.4216 265° West 490 564 36,000  Level FlightAware Transoceanic
09:07PM 43.9005 -151.5990 265° West 490 564 36,000 960 Level FlightAware Transoceanic
09:08PM 43.9127 -151.4216 265° West 463 533 38,000 960 Climbing FlightAware Transoceanic
09:09PM 43.9005 -151.5990 265° West 463 533 38,000  Level FlightAware Transoceanic
09:10PM 43.8881 -151.7763 264° West 463 533 38,000  Level FlightAware Transoceanic
09:11PM 43.8754 -151.9535 264° West 463 533 38,000  Level FlightAware Transoceanic
09:12PM 43.8624 -152.1307 264° West 463 533 38,000  Level FlightAware Transoceanic
09:13PM 43.8492 -152.3078 264° West 463 533 38,000  Level FlightAware Transoceanic
09:14PM 43.8357 -152.4848 264° West 463 533 38,000  Level FlightAware Transoceanic
09:15PM 43.8219 -152.6617 264° West 463 533 38,000  Level FlightAware Transoceanic
09:16PM 43.8078 -152.8385 264° West 463 533 38,000  Level FlightAware Transoceanic
09:17PM 43.7935 -153.0153 264° West 463 533 38,000  Level FlightAware Transoceanic
09:18PM 43.7789 -153.1920 263° West 463 533 38,000  Level FlightAware Transoceanic
09:19PM 43.7640 -153.3686 263° West 463 533 38,000  Level FlightAware Transoceanic
09:20PM 43.7488 -153.5451 263° West 463 533 38,000  Level FlightAware Transoceanic
09:21PM 43.7334 -153.7215 263° West 463 533 38,000  Level FlightAware Transoceanic
09:22PM 43.7177 -153.8978 263° West 463 533 38,000  Level FlightAware Transoceanic
09:23PM 43.7017 -154.0740 263° West 463 533 38,000  Level FlightAware Transoceanic
09:24PM 43.6855 -154.2501 263° West 463 533 38,000  Level FlightAware Transoceanic
09:25PM 43.6690 -154.4262 263° West 463 533 38,000  Level FlightAware Transoceanic
09:26PM 43.6522 -154.6021 262° West 463 533 38,000  Level FlightAware Transoceanic
09:27PM 43.6352 -154.7780 262° West 463 533 38,000  Level FlightAware Transoceanic
09:28PM 43.6178 -154.9537 262° West 463 533 38,000  Level FlightAware Transoceanic
09:29PM 43.6003 -155.1293 262° West 463 533 38,000  Level FlightAware Transoceanic
09:30PM 43.5824 -155.3049 262° West 463 533 38,000  Level FlightAware Transoceanic
09:31PM 43.5643 -155.4803 262° West 463 533 38,000  Level FlightAware Transoceanic
09:32PM 43.5459 -155.6556 262° West 463 533 38,000  Level FlightAware Transoceanic
09:33PM 43.5272 -155.8308 262° West 463 533 38,000  Level FlightAware Transoceanic
09:34PM 43.5083 -156.0059 261° West 463 533 38,000  Level FlightAware Transoceanic
09:35PM 43.4891 -156.1809 261° West 463 533 38,000  Level FlightAware Transoceanic
09:36PM 43.4696 -156.3558 261° West 463 533 38,000  Level FlightAware Transoceanic
09:37PM 43.4499 -156.5305 261° West 463 533 38,000  Level FlightAware Transoceanic
09:38PM 43.4299 -156.7052 261° West 463 533 38,000  Level FlightAware Transoceanic
09:39PM 43.4096 -156.8797 261° West 463 533 38,000  Level FlightAware Transoceanic
09:40PM 43.3891 -157.0542 261° West 463 533 38,000  Level FlightAware Transoceanic
09:41PM 43.3683 -157.2285 261° West 463 533 38,000  Level FlightAware Transoceanic
09:42PM 43.3473 -157.4026 261° West 463 533 38,000  Level FlightAware Transoceanic
09:43PM 43.3260 -157.5767 260° West 463 533 38,000  Level FlightAware Transoceanic
09:44PM 43.3044 -157.7506 260° West 463 533 38,000  Level FlightAware Transoceanic
09:45PM 43.2825 -157.9244 260° West 463 533 38,000  Level FlightAware Transoceanic
09:46PM 43.2604 -158.0981 260° West 463 533 38,000  Level FlightAware Transoceanic
09:47PM 43.2381 -158.2717 260° West 463 533 38,000  Level FlightAware Transoceanic
09:48PM 43.2154 -158.4451 260° West 463 533 38,000  Level FlightAware Transoceanic
09:49PM 43.1925 -158.6184 260° West 463 533 38,000  Level FlightAware Transoceanic
09:50PM 43.1694 -158.7916 260° West 463 533 38,000  Level FlightAware Transoceanic
09:51PM 43.1460 -158.9646 259° West 463 533 38,000  Level FlightAware Transoceanic
09:52PM 43.1223 -159.1375 259° West 463 533 38,000  Level FlightAware Transoceanic
09:53PM 43.0983 -159.3103 259° West 463 533 38,000  Level FlightAware Transoceanic
09:54PM 43.0742 -159.4829 259° West 463 533 38,000  Level FlightAware Transoceanic
09:55PM 43.0497 -159.6554 259° West 463 533 38,000  Level FlightAware Transoceanic
09:56PM 43.0250 -159.8278 259° West 463 533 38,000  Level FlightAware Transoceanic
09:57PM 43.0000 -160.0000 273° West 463 533 38,000  Level FlightAware Transoceanic
09:58PM 43.0075 -160.1750 273° West 463 533 38,000  Level FlightAware Transoceanic
09:58PM 43.0000 -160.0000 273° West 463 533 38,000  Level Oakland Oceanic (ODAPS)
09:59PM 43.0147 -160.3501 273° West 463 533 38,000  Level FlightAware Transoceanic
10:00PM 43.0217 -160.5253 273° West 463 533 38,000  Level FlightAware Transoceanic
10:01PM 43.0284 -160.7004 273° West 463 533 38,000  Level FlightAware Transoceanic
10:02PM 43.0349 -160.8756 273° West 463 533 38,000  Level FlightAware Transoceanic
10:03PM 43.0410 -161.0509 273° West 463 533 38,000  Level FlightAware Transoceanic
10:04PM 43.0469 -161.2262 273° West 463 533 38,000  Level FlightAware Transoceanic
10:05PM 43.0526 -161.4014 272° West 463 533 38,000  Level FlightAware Transoceanic
10:06PM 43.0579 -161.5768 272° West 463 533 38,000  Level FlightAware Transoceanic
10:07PM 43.0630 -161.7522 272° West 463 533 38,000  Level FlightAware Transoceanic
10:08PM 43.0678 -161.9276 272° West 463 533 38,000  Level FlightAware Transoceanic
10:09PM 43.0724 -162.1030 272° West 463 533 38,000  Level FlightAware Transoceanic
10:10PM 43.0767 -162.2784 272° West 463 533 38,000  Level FlightAware Transoceanic
10:11PM 43.0807 -162.4539 272° West 463 533 38,000  Level FlightAware Transoceanic
10:12PM 43.0845 -162.6294 272° West 463 533 38,000  Level FlightAware Transoceanic
10:13PM 43.0880 -162.8049 271° West 463 533 38,000  Level FlightAware Transoceanic
10:14PM 43.0912 -162.9805 271° West 463 533 38,000  Level FlightAware Transoceanic
10:15PM 43.0942 -163.1560 271° West 463 533 38,000  Level FlightAware Transoceanic
10:16PM 43.0969 -163.3316 271° West 463 533 38,000  Level FlightAware Transoceanic
10:17PM 43.0993 -163.5072 271° West 463 533 38,000  Level FlightAware Transoceanic
10:18PM 43.1014 -163.6828 271° West 463 533 38,000  Level FlightAware Transoceanic
10:19PM 43.1033 -163.8584 271° West 463 533 38,000  Level FlightAware Transoceanic
10:20PM 43.1049 -164.0340 271° West 463 533 38,000  Level FlightAware Transoceanic
10:21PM 43.1063 -164.2096 271° West 463 533 38,000  Level FlightAware Transoceanic
10:22PM 43.1073 -164.3853 270° West 463 533 38,000  Level FlightAware Transoceanic
10:23PM 43.1081 -164.5609 270° West 463 533 38,000  Level FlightAware Transoceanic
10:24PM 43.1087 -164.7365 270° West 463 533 38,000  Level FlightAware Transoceanic
10:25PM 43.1089 -164.9122 270° West 463 533 38,000  Level FlightAware Transoceanic
10:26PM 43.1089 -165.0878 270° West 463 533 38,000  Level FlightAware Transoceanic
10:27PM 43.1087 -165.2635 270° West 463 533 38,000  Level FlightAware Transoceanic
10:28PM 43.1081 -165.4391 270° West 463 533 38,000  Level FlightAware Transoceanic
10:29PM 43.1073 -165.6147 270° West 463 533 38,000  Level FlightAware Transoceanic
10:30PM 43.1063 -165.7904 269° West 463 533 38,000  Level FlightAware Transoceanic
10:31PM 43.1049 -165.9660 269° West 463 533 38,000  Level FlightAware Transoceanic
10:32PM 43.1033 -166.1416 269° West 463 533 38,000  Level FlightAware Transoceanic
10:33PM 43.1014 -166.3172 269° West 463 533 38,000  Level FlightAware Transoceanic
10:34PM 43.0993 -166.4928 269° West 463 533 38,000  Level FlightAware Transoceanic
10:35PM 43.0969 -166.6684 269° West 463 533 38,000  Level FlightAware Transoceanic
10:36PM 43.0942 -166.8440 269° West 463 533 38,000  Level FlightAware Transoceanic
10:37PM 43.0912 -167.0195 269° West 463 533 38,000  Level FlightAware Transoceanic
10:38PM 43.0880 -167.1951 269° West 463 533 38,000  Level FlightAware Transoceanic
10:39PM 43.0845 -167.3706 268° West 463 533 38,000  Level FlightAware Transoceanic
10:40PM 43.0807 -167.5461 268° West 463 533 38,000  Level FlightAware Transoceanic
10:41PM 43.0767 -167.7216 268° West 463 533 38,000  Level FlightAware Transoceanic
10:42PM 43.0724 -167.8970 268° West 463 533 38,000  Level FlightAware Transoceanic
10:43PM 43.0678 -168.0724 268° West 463 533 38,000  Level FlightAware Transoceanic
10:44PM 43.0630 -168.2478 268° West 463 533 38,000  Level FlightAware Transoceanic
10:45PM 43.0579 -168.4232 268° West 463 533 38,000  Level FlightAware Transoceanic
10:46PM 43.0526 -168.5986 268° West 463 533 38,000  Level FlightAware Transoceanic
10:47PM 43.0469 -168.7738 267° West 463 533 38,000  Level FlightAware Transoceanic
10:48PM 43.0410 -168.9491 267° West 463 533 38,000  Level FlightAware Transoceanic
10:49PM 43.0349 -169.1244 267° West 463 533 38,000  Level FlightAware Transoceanic
10:50PM 43.0284 -169.2996 267° West 463 533 38,000  Level FlightAware Transoceanic
10:51PM 43.0217 -169.4747 267° West 463 533 38,000  Level FlightAware Transoceanic
10:52PM 43.0147 -169.6499 267° West 463 533 38,000  Level FlightAware Transoceanic
10:53PM 43.0075 -169.8250 267° West 463 533 38,000  Level FlightAware Transoceanic
10:54PM 43.0000 -170.0000 281° West 463 533 38,000  Level FlightAware Transoceanic
10:55PM 43.0233 -170.1609 281° West 463 533 38,000  Level FlightAware Transoceanic
10:56PM 43.0465 -170.3220 281° West 463 533 38,000  Level FlightAware Transoceanic
10:57PM 43.0694 -170.4831 281° West 463 533 38,000  Level FlightAware Transoceanic
10:58PM 43.0920 -170.6444 281° West 463 533 38,000  Level FlightAware Transoceanic
10:59PM 43.1145 -170.8058 281° West 463 533 38,000  Level FlightAware Transoceanic
11:00PM 43.1367 -170.9673 281° West 463 533 38,000  Level FlightAware Transoceanic
11:01PM 43.1587 -171.1290 281° West 463 533 38,000  Level FlightAware Transoceanic
11:02PM 43.1804 -171.2907 280° West 463 533 38,000  Level FlightAware Transoceanic
11:03PM 43.2020 -171.4526 280° West 463 533 38,000  Level FlightAware Transoceanic
11:04PM 43.2233 -171.6146 280° West 463 533 38,000  Level FlightAware Transoceanic
11:05PM 43.2443 -171.7767 280° West 463 533 38,000  Level FlightAware Transoceanic
11:06PM 43.2652 -171.9389 280° West 463 533 38,000  Level FlightAware Transoceanic
11:07PM 43.2858 -172.1012 280° West 463 533 38,000  Level FlightAware Transoceanic
11:08PM 43.3062 -172.2636 280° West 463 533 38,000  Level FlightAware Transoceanic
11:09PM 43.3263 -172.4262 280° West 463 533 38,000  Level FlightAware Transoceanic
11:10PM 43.3462 -172.5888 280° West 463 533 38,000  Level FlightAware Transoceanic
11:11PM 43.3659 -172.7516 279° West 463 533 38,000  Level FlightAware Transoceanic
11:12PM 43.3854 -172.9144 279° West 463 533 38,000  Level FlightAware Transoceanic
11:13PM 43.4046 -173.0774 279° West 463 533 38,000  Level FlightAware Transoceanic
11:14PM 43.4236 -173.2404 279° West 463 533 38,000  Level FlightAware Transoceanic
11:15PM 43.4424 -173.4036 279° West 463 533 38,000  Level FlightAware Transoceanic
11:16PM 43.4609 -173.5668 279° West 463 533 38,000  Level FlightAware Transoceanic
11:17PM 43.4792 -173.7302 279° West 463 533 38,000  Level FlightAware Transoceanic
11:18PM 43.4973 -173.8937 279° West 463 533 38,000  Level FlightAware Transoceanic
11:19PM 43.5151 -174.0572 278° West 463 533 38,000  Level FlightAware Transoceanic
11:20PM 43.5327 -174.2209 278° West 463 533 38,000  Level FlightAware Transoceanic
11:21PM 43.5501 -174.3846 278° West 463 533 38,000  Level FlightAware Transoceanic
11:22PM 43.5673 -174.5485 278° West 463 533 38,000  Level FlightAware Transoceanic
11:23PM 43.5842 -174.7124 278° West 463 533 38,000  Level FlightAware Transoceanic
11:24PM 43.6008 -174.8764 278° West 463 533 38,000  Level FlightAware Transoceanic
11:25PM 43.6173 -175.0406 278° West 463 533 38,000  Level FlightAware Transoceanic
11:26PM 43.6335 -175.2048 278° West 463 533 38,000  Level FlightAware Transoceanic
11:27PM 43.6494 -175.3691 278° West 463 533 38,000  Level FlightAware Transoceanic
11:28PM 43.6651 -175.5334 277° West 463 533 38,000  Level FlightAware Transoceanic
11:29PM 43.6806 -175.6979 277° West 463 533 38,000  Level FlightAware Transoceanic
11:30PM 43.6959 -175.8625 277° West 463 533 38,000  Level FlightAware Transoceanic
11:31PM 43.7109 -176.0271 277° West 463 533 38,000  Level FlightAware Transoceanic
11:32PM 43.7257 -176.1918 277° West 463 533 38,000  Level FlightAware Transoceanic
11:33PM 43.7403 -176.3566 277° West 463 533 38,000  Level FlightAware Transoceanic
11:34PM 43.7546 -176.5215 277° West 463 533 38,000  Level FlightAware Transoceanic
11:35PM 43.7686 -176.6864 277° West 463 533 38,000  Level FlightAware Transoceanic
11:36PM 43.7825 -176.8515 277° West 463 533 38,000  Level FlightAware Transoceanic
11:37PM 43.7961 -177.0166 276° West 463 533 38,000  Level FlightAware Transoceanic
11:38PM 43.8094 -177.1817 276° West 463 533 38,000  Level FlightAware Transoceanic
11:39PM 43.8226 -177.3470 276° West 463 533 38,000  Level FlightAware Transoceanic
11:40PM 43.8354 -177.5123 276° West 463 533 38,000  Level FlightAware Transoceanic
11:41PM 43.8481 -177.6777 276° West 463 533 38,000  Level FlightAware Transoceanic
11:42PM 43.8605 -177.8432 276° West 463 533 38,000  Level FlightAware Transoceanic
11:43PM 43.8727 -178.0087 276° West 463 533 38,000  Level FlightAware Transoceanic
11:44PM 43.8846 -178.1743 276° West 463 533 38,000  Level FlightAware Transoceanic
11:45PM 43.8963 -178.3400 276° West 463 533 38,000  Level FlightAware Transoceanic
11:46PM 43.9077 -178.5057 275° West 463 533 38,000  Level FlightAware Transoceanic
11:47PM 43.9189 -178.6715 275° West 463 533 38,000  Level FlightAware Transoceanic
11:48PM 43.9299 -178.8374 275° West 463 533 38,000  Level FlightAware Transoceanic
11:49PM 43.9407 -179.0033 275° West 463 533 38,000  Level FlightAware Transoceanic
11:50PM 43.9511 -179.1693 275° West 463 533 38,000  Level FlightAware Transoceanic
11:51PM 43.9614 -179.3353 275° West 463 533 38,000  Level FlightAware Transoceanic
11:52PM 43.9714 -179.5014 275° West 463 533 38,000  Level FlightAware Transoceanic
11:53PM 43.9812 -179.6676 275° West 463 533 38,000  Level FlightAware Transoceanic
11:54PM 43.9907 -179.8338 274° West 463 533 38,000  Level FlightAware Transoceanic
11:55PM 44.0007 179.9880 274° West  Level FlightAware Approximate
11:56PM 44.0010 179.9759 273° West  Level FlightAware Approximate
11:57PM 44.0083 179.7973 273° West  Level FlightAware Approximate
11:58PM 44.0153 179.6187 273° West  Level FlightAware Approximate
11:59PM 44.0221 179.4401 273° West  Level FlightAware Approximate
11:59PM 44.0000 180.0000 273° West 393 452 38,000  Level Oakland Oceanic (ODAPS)
12:00AM 44.0285 179.2614 273° West  Level FlightAware Approximate
12:01AM 44.0347 179.0827 273° West  Level FlightAware Approximate
12:02AM 44.0406 178.9039 273° West  Level FlightAware Approximate
12:03AM 44.0463 178.7251 273° West  Level FlightAware Approximate
12:04AM 44.0516 178.5463 272° West  Level FlightAware Approximate
12:05AM 44.0514 178.6385 273° West 393 452 38,000  Level FlightAware Transoceanic
12:06AM 44.0561 178.4870 272° West 393 452 38,000  Level FlightAware Transoceanic
12:07AM 44.0606 178.3356 272° West 393 452 38,000  Level FlightAware Transoceanic
12:08AM 44.0649 178.1841 272° West 393 452 38,000  Level FlightAware Transoceanic
12:09AM 44.0690 178.0327 272° West 393 452 38,000  Level FlightAware Transoceanic
12:10AM 44.0729 177.8811 272° West 393 452 38,000  Level FlightAware Transoceanic
12:11AM 44.0767 177.7296 272° West 393 452 38,000  Level FlightAware Transoceanic
12:12AM 44.0802 177.5781 272° West 393 452 38,000  Level FlightAware Transoceanic
12:13AM 44.0835 177.4265 272° West 393 452 38,000  Level FlightAware Transoceanic
12:14AM 44.0866 177.2749 272° West 393 452 38,000  Level FlightAware Transoceanic
12:15AM 44.0895 177.1234 271° West 393 452 38,000  Level FlightAware Transoceanic
12:16AM 44.0922 176.9717 271° West 393 452 38,000  Level FlightAware Transoceanic
12:17AM 44.0947 176.8201 271° West 393 452 38,000  Level FlightAware Transoceanic
12:18AM 44.0970 176.6685 271° West 393 452 38,000  Level FlightAware Transoceanic
12:19AM 44.0991 176.5168 271° West 393 452 38,000  Level FlightAware Transoceanic
12:20AM 44.1010 176.3652 271° West 393 452 38,000  Level FlightAware Transoceanic
12:21AM 44.1027 176.2135 271° West 393 452 38,000  Level FlightAware Transoceanic
12:22AM 44.1042 176.0618 271° West 393 452 38,000  Level FlightAware Transoceanic
12:23AM 44.1055 175.9102 271° West 393 452 38,000  Level FlightAware Transoceanic
12:24AM 44.1067 175.7585 271° West 393 452 38,000  Level FlightAware Transoceanic
12:25AM 44.1076 175.6068 270° West 393 452 38,000  Level FlightAware Transoceanic
12:26AM 44.1083 175.4551 270° West 393 452 38,000  Level FlightAware Transoceanic
12:27AM 44.1088 175.3034 270° West 393 452 38,000  Level FlightAware Transoceanic
12:28AM 44.1091 175.1517 270° West 393 452 38,000  Level FlightAware Transoceanic
12:29AM 44.1092 175.0000 270° West 393 452 38,000  Level FlightAware Transoceanic
12:30AM 44.1091 174.8483 270° West 393 452 38,000  Level FlightAware Transoceanic
12:31AM 44.1088 174.6966 270° West 393 452 38,000  Level FlightAware Transoceanic
12:32AM 44.1083 174.5449 270° West 393 452 38,000  Level FlightAware Transoceanic
12:33AM 44.1076 174.3932 270° West 393 452 38,000  Level FlightAware Transoceanic
12:34AM 44.1067 174.2415 269° West 393 452 38,000  Level FlightAware Transoceanic
12:35AM 44.1055 174.0898 269° West 393 452 38,000  Level FlightAware Transoceanic
12:36AM 44.1042 173.9382 269° West 393 452 38,000  Level FlightAware Transoceanic
12:37AM 44.1027 173.7865 269° West 393 452 38,000  Level FlightAware Transoceanic
12:38AM 44.1010 173.6348 269° West 393 452 38,000  Level FlightAware Transoceanic
12:39AM 44.0991 173.4832 269° West 393 452 38,000  Level FlightAware Transoceanic
12:40AM 44.0970 173.3315 269° West 393 452 38,000  Level FlightAware Transoceanic
12:41AM 44.0947 173.1799 269° West 393 452 38,000  Level FlightAware Transoceanic
12:42AM 44.0922 173.0283 269° West 393 452 38,000  Level FlightAware Transoceanic
12:43AM 44.0895 172.8766 269° West 393 452 38,000  Level FlightAware Transoceanic
12:44AM 44.0866 172.7251 268° West 393 452 38,000  Level FlightAware Transoceanic
12:45AM 44.0835 172.5735 268° West 393 452 38,000  Level FlightAware Transoceanic
12:46AM 44.0802 172.4219 268° West 393 452 38,000  Level FlightAware Transoceanic
12:47AM 44.0767 172.2704 268° West 393 452 38,000  Level FlightAware Transoceanic
12:48AM 44.0729 172.1189 268° West 393 452 38,000  Level FlightAware Transoceanic
12:49AM 44.0690 171.9673 268° West 393 452 38,000  Level FlightAware Transoceanic
12:50AM 44.0649 171.8159 268° West 393 452 38,000  Level FlightAware Transoceanic
12:51AM 44.0606 171.6644 268° West 393 452 38,000  Level FlightAware Transoceanic
12:52AM 44.0561 171.5130 268° West 393 452 38,000  Level FlightAware Transoceanic
12:53AM 44.0514 171.3615 267° West 393 452 38,000  Level FlightAware Transoceanic
12:54AM 44.0465 171.2101 267° West 393 452 38,000  Level FlightAware Transoceanic
12:55AM 44.0414 171.0588 267° West 393 452 38,000  Level FlightAware Transoceanic
12:56AM 44.0361 170.9074 267° West 393 452 38,000  Level FlightAware Transoceanic
12:57AM 44.0305 170.7561 267° West 393 452 38,000  Level FlightAware Transoceanic
12:58AM 44.0248 170.6048 267° West 393 452 38,000  Level FlightAware Transoceanic
12:59AM 44.0189 170.4536 267° West 393 452 38,000  Level FlightAware Transoceanic
01:00AM 44.0128 170.3024 267° West 393 452 38,000  Level FlightAware Transoceanic
01:01AM 44.0065 170.1512 267° West 393 452 38,000  Level FlightAware Transoceanic
01:02AM 44.0000 170.0000 258° West 393 452 38,000  Level FlightAware Transoceanic
01:03AM 43.9744 169.8311 258° West 393 452 38,000  Level FlightAware Transoceanic
01:04AM 43.9485 169.6623 258° West 393 452 38,000  Level FlightAware Transoceanic
01:05AM 43.9224 169.4937 258° West 393 452 38,000  Level FlightAware Transoceanic
01:06AM 43.8961 169.3252 258° West 393 452 38,000 1,320 Level FlightAware Transoceanic
01:06AM 44.0000 170.0000 258° West 391 450 40,000  Climbing Oakland Oceanic (ODAPS)
01:07AM 43.8695 169.1569 258° West 393 452 38,000 -1,320 Descending FlightAware Transoceanic
01:08AM 43.8426 168.9887 257° West 393 452 38,000  Level FlightAware Transoceanic
01:09AM 43.8155 168.8207 257° West 393 452 38,000  Level FlightAware Transoceanic
01:10AM 43.7882 168.6528 257° West 393 452 38,000  Level FlightAware Transoceanic
01:11AM 43.7606 168.4851 257° West 393 452 38,000 960 Level FlightAware Transoceanic
01:12AM 43.7722 168.5558 257° West 391 450 40,000 960 Climbing FlightAware Transoceanic
01:13AM 43.7458 168.3960 257° West 391 450 40,000  Level FlightAware Transoceanic
01:14AM 43.7192 168.2364 257° West 391 450 40,000  Level FlightAware Transoceanic
01:15AM 43.6923 168.0769 257° West 391 450 40,000  Level FlightAware Transoceanic
01:16AM 43.6652 167.9176 257° West 391 450 40,000  Level FlightAware Transoceanic
01:17AM 43.6379 167.7584 257° West 391 450 40,000  Level FlightAware Transoceanic
01:18AM 43.6104 167.5993 256° West 391 450 40,000  Level FlightAware Transoceanic
01:19AM 43.5826 167.4404 256° West 391 450 40,000  Level FlightAware Transoceanic
01:20AM 43.5546 167.2816 256° West 391 450 40,000  Level FlightAware Transoceanic
01:21AM 43.5265 167.1230 256° West 391 450 40,000  Level FlightAware Transoceanic
01:22AM 43.4980 166.9646 256° West 391 450 40,000  Level FlightAware Transoceanic
01:23AM 43.4694 166.8062 256° West 391 450 40,000  Level FlightAware Transoceanic
01:24AM 43.4406 166.6481 256° West 391 450 40,000  Level FlightAware Transoceanic
01:25AM 43.4115 166.4901 256° West 391 450 40,000  Level FlightAware Transoceanic
01:26AM 43.3822 166.3322 256° West 391 450 40,000  Level FlightAware Transoceanic
01:27AM 43.3527 166.1745 256° West 391 450 40,000  Level FlightAware Transoceanic
01:28AM 43.3230 166.0169 255° West 391 450 40,000  Level FlightAware Transoceanic
01:29AM 43.2930 165.8595 255° West 391 450 40,000  Level FlightAware Transoceanic
01:30AM 43.2629 165.7023 255° West 391 450 40,000  Level FlightAware Transoceanic
01:31AM 43.2325 165.5452 255° West 391 450 40,000  Level FlightAware Transoceanic
01:32AM 43.2020 165.3883 255° West 391 450 40,000  Level FlightAware Transoceanic
01:33AM 43.1712 165.2315 255° West 391 450 40,000  Level FlightAware Transoceanic
01:34AM 43.1402 165.0749 255° West 391 450 40,000  Level FlightAware Transoceanic
01:35AM 43.1089 164.9184 255° West 391 450 40,000  Level FlightAware Transoceanic
01:36AM 43.0775 164.7621 255° West 391 450 40,000  Level FlightAware Transoceanic
01:37AM 43.0459 164.6060 254° West 391 450 40,000  Level FlightAware Transoceanic
01:38AM 43.0140 164.4500 254° West 391 450 40,000  Level FlightAware Transoceanic
01:39AM 42.9819 164.2942 254° West 391 450 40,000  Level FlightAware Transoceanic
01:40AM 42.9496 164.1385 254° West 391 450 40,000  Level FlightAware Transoceanic
01:41AM 42.9172 163.9830 254° West 391 450 40,000  Level FlightAware Transoceanic
01:42AM 42.8845 163.8277 254° West 391 450 40,000  Level FlightAware Transoceanic
01:43AM 42.8516 163.6726 254° West 391 450 40,000  Level FlightAware Transoceanic
01:44AM 42.8184 163.5176 254° West 391 450 40,000  Level FlightAware Transoceanic
01:45AM 42.7851 163.3627 254° West 391 450 40,000  Level FlightAware Transoceanic
01:46AM 42.7516 163.2081 253° West 391 450 40,000  Level FlightAware Transoceanic
01:47AM 42.7178 163.0536 253° West 391 450 40,000  Level FlightAware Transoceanic
01:48AM 42.6839 162.8993 253° West 391 450 40,000  Level FlightAware Transoceanic
01:49AM 42.6497 162.7451 253° West 391 450 40,000  Level FlightAware Transoceanic
01:50AM 42.6153 162.5912 253° West 391 450 40,000  Level FlightAware Transoceanic
01:51AM 42.5808 162.4373 253° West 391 450 40,000  Level FlightAware Transoceanic
01:52AM 42.5460 162.2837 253° West 391 450 40,000  Level FlightAware Transoceanic
01:53AM 42.5110 162.1302 253° West 391 450 40,000  Level FlightAware Transoceanic
01:54AM 42.4758 161.9769 253° West 391 450 40,000  Level FlightAware Transoceanic
01:55AM 42.4404 161.8238 253° West 391 450 40,000  Level FlightAware Transoceanic
01:56AM 42.4048 161.6709 252° West 391 450 40,000  Level FlightAware Transoceanic
01:57AM 42.3690 161.5181 252° West 391 450 40,000  Level FlightAware Transoceanic
01:58AM 42.3330 161.3655 252° West 391 450 40,000  Level FlightAware Transoceanic
01:59AM 42.2968 161.2130 252° West 391 450 40,000  Level FlightAware Transoceanic
02:00AM 42.2604 161.0608 252° West 391 450 40,000  Level FlightAware Transoceanic
02:01AM 42.2238 160.9087 252° West 391 450 40,000  Level FlightAware Transoceanic
02:02AM 42.1870 160.7568 252° West 391 450 40,000  Level FlightAware Transoceanic
02:03AM 42.1500 160.6051 252° West 391 450 40,000  Level FlightAware Transoceanic
02:04AM 42.1128 160.4536 252° West 391 450 40,000  Level FlightAware Transoceanic
02:05AM 42.0754 160.3022 252° West 391 450 40,000  Level FlightAware Transoceanic
02:06AM 42.0378 160.1510 251° West 391 450 40,000  Level FlightAware Transoceanic
02:07AM 42.0000 160.0000 253° West 391 450 40,000  Level FlightAware Transoceanic
02:08AM 41.9619 159.8320 253° West 391 450 40,000  Level FlightAware Transoceanic
02:09AM 41.9236 159.6642 253° West 391 450 40,000  Level FlightAware Transoceanic
02:10AM 41.8851 159.4966 253° West 391 450 40,000  Level FlightAware Transoceanic
02:11AM 41.8463 159.3292 253° West 391 450 40,000  Level FlightAware Transoceanic
02:12AM 41.8073 159.1620 253° West 391 450 40,000  Level FlightAware Transoceanic
02:13AM 41.7680 158.9951 252° West 391 450 40,000  Level FlightAware Transoceanic
02:14AM 41.7285 158.8283 252° West 391 450 40,000  Level FlightAware Transoceanic
02:15AM 41.6887 158.6617 252° West 391 450 40,000  Level FlightAware Transoceanic
02:16AM 41.6487 158.4953 252° West 391 450 40,000  Level FlightAware Transoceanic
02:17AM 41.6085 158.3292 252° West 391 450 40,000  Level FlightAware Transoceanic
02:18AM 41.5680 158.1633 252° West 391 450 40,000  Level FlightAware Transoceanic
02:19AM 41.5272 157.9975 252° West 391 450 40,000  Level FlightAware Transoceanic
02:20AM 41.4863 157.8320 252° West 391 450 40,000  Level FlightAware Transoceanic
02:21AM 41.4451 157.6667 252° West 391 450 40,000  Level FlightAware Transoceanic
02:22AM 41.4037 157.5015 251° West 391 450 40,000  Level FlightAware Transoceanic
02:23AM 41.3620 157.3366 251° West 391 450 40,000  Level FlightAware Transoceanic
02:24AM 41.3201 157.1720 251° West 391 450 40,000  Level FlightAware Transoceanic
02:25AM 41.2780 157.0075 251° West 391 450 40,000  Level FlightAware Transoceanic
02:26AM 41.2356 156.8432 251° West 391 450 40,000  Level FlightAware Transoceanic
02:27AM 41.1930 156.6792 251° West 391 450 40,000  Level FlightAware Transoceanic
02:28AM 41.1502 156.5153 251° West 391 450 40,000  Level FlightAware Transoceanic
02:29AM 41.1071 156.3517 251° West 391 450 40,000  Level FlightAware Transoceanic
02:30AM 41.0638 156.1883 251° West 391 450 40,000  Level FlightAware Transoceanic
02:31AM 41.0203 156.0251 250° West 391 450 40,000  Level FlightAware Transoceanic
02:32AM 40.9765 155.8621 250° West 391 450 40,000  Level FlightAware Transoceanic
02:33AM 40.9325 155.6994 250° West 391 450 40,000  Level FlightAware Transoceanic
02:34AM 40.8883 155.5368 250° West 391 450 40,000  Level FlightAware Transoceanic
02:35AM 40.8439 155.3745 250° West 391 450 40,000  Level FlightAware Transoceanic
02:36AM 40.7992 155.2124 250° West 391 450 40,000  Level FlightAware Transoceanic
02:37AM 40.7543 155.0505 250° West 391 450 40,000  Level FlightAware Transoceanic
02:38AM 40.7092 154.8889 250° West 391 450 40,000  Level FlightAware Transoceanic
02:39AM 40.6638 154.7274 250° West 391 450 40,000  Level FlightAware Transoceanic
02:40AM 40.6183 154.5662 250° West 391 450 40,000  Level FlightAware Transoceanic
02:41AM 40.5725 154.4052 249° West 391 450 40,000  Level FlightAware Transoceanic
02:42AM 40.5265 154.2444 249° West 391 450 40,000  Level FlightAware Transoceanic
02:43AM 40.4802 154.0838 249° West 391 450 40,000  Level FlightAware Transoceanic
02:44AM 40.4337 153.9235 249° West 391 450 40,000  Level FlightAware Transoceanic
02:45AM 40.3871 153.7633 249° West 391 450 40,000  Level FlightAware Transoceanic
02:46AM 40.3401 153.6034 249° West 391 450 40,000  Level FlightAware Transoceanic
02:47AM 40.2930 153.4438 249° West 391 450 40,000  Level FlightAware Transoceanic
02:48AM 40.2457 153.2843 249° West 391 450 40,000  Level FlightAware Transoceanic
02:49AM 40.1981 153.1251 249° West 391 450 40,000  Level FlightAware Transoceanic
02:50AM 40.1503 152.9661 248° West 391 450 40,000  Level FlightAware Transoceanic
02:51AM 40.1023 152.8073 248° West 391 450 40,000  Level FlightAware Transoceanic
02:52AM 40.0541 152.6487 248° West 391 450 40,000  Level FlightAware Transoceanic
02:53AM 40.0057 152.4904 248° West 391 450 40,000  Level FlightAware Transoceanic
02:54AM 39.9570 152.3323 248° West 391 450 40,000  Level FlightAware Transoceanic
02:55AM 39.9082 152.1744 248° West 391 450 40,000  Level FlightAware Transoceanic
02:56AM 39.8591 152.0167 248° West 391 450 40,000  Level FlightAware Transoceanic
02:57AM 39.8098 151.8593 248° West 391 450 40,000  Level FlightAware Transoceanic
02:58AM 39.7603 151.7021 248° West 391 450 40,000  Level FlightAware Transoceanic
02:59AM 39.7106 151.5451 248° West 391 450 40,000  Level FlightAware Transoceanic
03:00AM 39.6607 151.3884 247° West 391 450 40,000  Level FlightAware Transoceanic
03:01AM 39.6105 151.2318 247° West 391 450 40,000  Level FlightAware Transoceanic
03:02AM 39.5602 151.0755 247° West 391 450 40,000  Level FlightAware Transoceanic
03:03AM 39.5097 150.9195 247° West 391 450 40,000  Level FlightAware Transoceanic
03:04AM 39.4589 150.7636 247° West 391 450 40,000  Level FlightAware Transoceanic
03:05AM 39.4079 150.6080 247° West 391 450 40,000  Level FlightAware Transoceanic
03:06AM 39.3568 150.4526 247° West 391 450 40,000  Level FlightAware Transoceanic
03:07AM 39.3054 150.2975 247° West 391 450 40,000  Level FlightAware Transoceanic
03:08AM 39.2538 150.1425 247° West 391 450 40,000  Level FlightAware Transoceanic
03:09AM 39.2020 149.9878 247° West 391 450 40,000  Level FlightAware Transoceanic
03:10AM 39.1557 149.8352 249° West  Level FlightAware Approximate
03:11AM 39.1091 149.6828 249° West  Level FlightAware Approximate
03:12AM 39.0964 149.6956 240° Southwest  Level FlightAware Approximate
03:13AM 39.0332 149.5536 240° Southwest  Level FlightAware Approximate
03:14AM 38.9699 149.4118 240° Southwest  Level FlightAware Approximate
03:15AM 38.9064 149.2704 240° Southwest  Level FlightAware Approximate
03:16AM 38.8428 149.1291 240° Southwest  Level FlightAware Approximate
03:17AM 38.7790 148.9881 240° Southwest  Level FlightAware Approximate
03:18AM 38.7150 148.8474 240° Southwest  Level FlightAware Approximate
03:19AM 38.6508 148.7070 240° Southwest  Level FlightAware Approximate
03:20AM 38.5865 148.5667 240° Southwest  Level FlightAware Approximate
03:21AM 38.5220 148.4268 240° Southwest  Level FlightAware Approximate
03:22AM 38.4574 148.2870 239° Southwest  Level FlightAware Approximate
03:23AM 38.3925 148.1476 239° Southwest  Level FlightAware Approximate
03:24AM 38.3275 148.0084 239° Southwest  Level FlightAware Approximate
03:25AM 38.2624 147.8694 239° Southwest  Level FlightAware Approximate
03:26AM 38.1971 147.7307 239° Southwest  Level FlightAware Approximate
03:27AM 38.1316 147.5922 239° Southwest  Level FlightAware Approximate
03:28AM 38.0660 147.4540 239° Southwest  Level FlightAware Approximate
03:29AM 38.0002 147.3160 239° Southwest  Level FlightAware Approximate
03:30AM 37.9342 147.1783 239° Southwest  Level FlightAware Approximate
03:31AM 37.8681 147.0408 239° Southwest  Level FlightAware Approximate
03:32AM 37.8018 146.9036 239° Southwest  Level FlightAware Approximate
03:33AM 37.7354 146.7666 239° Southwest  Level FlightAware Approximate
03:34AM 37.6688 146.6299 238° Southwest  Level FlightAware Approximate
03:35AM 37.6020 146.4934 238° Southwest  Level FlightAware Approximate
03:36AM 37.5351 146.3571 238° Southwest  Level FlightAware Approximate
03:37AM 37.4680 146.2211 238° Southwest  Level FlightAware Approximate
03:38AM 37.4008 146.0853 238° Southwest  Level FlightAware Approximate
03:39AM 37.3334 145.9498 238° Southwest  Level FlightAware Approximate
03:40AM 37.2659 145.8146 238° Southwest  Level FlightAware Approximate
03:41AM 37.1982 145.6795 238° Southwest  Level FlightAware Approximate
03:42AM 37.1706 145.5265 263° West  Level FlightAware Approximate
03:43AM 37.1541 145.3684 263° West  Level FlightAware Approximate
03:44AM 37.1373 145.2104 262° West  Level FlightAware Approximate
03:45AM 37.1204 145.0525 262° West  Level FlightAware Approximate
03:46AM 37.1032 144.8946 262° West  Level FlightAware Approximate
03:46AM 37.1660 145.1010 262° West 423 487 40,000  Level FlightAware
03:47AM 37.0859 144.7369 262° West  Level FlightAware Approximate
03:47AM 37.1590 144.9990 265° West 421 484 40,000  Level FlightAware
03:48AM 37.1520 144.9030 265° West 420 483 40,000  Level FlightAware
03:48AM 37.1450 144.8090 265° West 420 483 40,000  Level FlightAware
03:49AM 37.1360 144.6770 265° West 420 483 40,000  Level FlightAware
03:50AM 37.1280 144.5640 265° West 422 486 40,000  Level FlightAware
03:51AM 37.1210 144.4670 265° West 423 487 40,000  Level FlightAware
03:52AM 37.1120 144.3580 264° West 424 488 40,000  Level FlightAware
03:52AM 37.1050 144.2590 265° West 426 490 40,000  Level FlightAware
03:53AM 37.0950 144.1240 265° West 427 491 40,000  Level FlightAware
03:54AM 37.0860 144.0150 264° West 428 493 40,000  Level FlightAware
03:55AM 37.0790 143.9160 265° West 428 493 40,000  Level FlightAware
03:55AM 37.0700 143.8060 264° West 429 494 40,000  Level FlightAware
03:56AM 37.0620 143.7070 264° West 428 493 40,000  Level FlightAware
03:57AM 37.0540 143.6050 264° West 428 493 40,000  Level FlightAware
03:57AM 37.0460 143.5070 264° West 428 493 40,000  Level FlightAware
03:58AM 37.0380 143.4080 264° West 428 493 40,000  Level FlightAware
03:59AM 37.0300 143.3100 264° West 427 491 40,000  Level FlightAware
03:59AM 37.0210 143.2010 264° West 427 491 40,000  Level FlightAware
04:00AM 37.0110 143.0930 263° West 427 491 40,000  Level FlightAware
04:01AM 36.9990 142.9530 264° West 426 490 40,000  Level FlightAware
04:02AM 36.9900 142.8430 264° West 425 489 40,000  Level FlightAware
04:02AM 36.9810 142.7460 263° West 426 490 40,000  Level FlightAware
04:03AM 36.9730 142.6480 264° West 425 489 40,000  Level FlightAware
04:04AM 36.9630 142.5380 264° West 425 489 40,000  Level FlightAware
04:04AM 36.9550 142.4530 263° West 425 489 40,000  Level FlightAware
04:06AM 36.9390 142.2830 263° West 425 489 40,000  Level FlightAware
04:06AM 36.9290 142.1730 264° West 426 490 40,000  Level FlightAware
04:07AM 36.9200 142.0760 263° West 426 490 40,000  Level FlightAware
04:08AM 36.9100 141.9650 264° West 428 493 40,000  Level FlightAware
04:08AM 36.9000 141.8670 263° West 429 494 40,000  Level FlightAware
04:09AM 36.8900 141.7560 264° West 431 496 40,000  Level FlightAware
04:10AM 36.8800 141.6580 263° West 433 498 40,000  Level FlightAware
04:11AM 36.8660 141.5160 263° West 435 501 40,000  Level FlightAware
04:11AM 36.8560 141.4170 263° West 437 503 40,000  Level FlightAware
04:12AM 36.8450 141.3030 263° West 437 503 40,000  Level FlightAware
04:13AM 36.8230 141.1970 255° West 436 502 40,000  Level FlightAware
04:14AM 36.7920 141.1040 247° West 438 504 40,000  Level FlightAware
04:14AM 36.7560 141.0000 247° West 440 506 40,000  Level FlightAware
04:15AM 36.7350 140.9390 247° West 437 503 40,000  Level FlightAware
04:16AM 36.6870 140.7990 247° West 443 510 40,000  Level FlightAware
04:17AM 36.6490 140.6890 247° West 444 511 40,000  Level FlightAware
04:17AM 36.6130 140.5860 246° West 446 513 40,000  Level FlightAware
04:18AM 36.5790 140.4900 246° West 447 514 40,000  Level FlightAware
04:19AM 36.5450 140.3910 247° West 450 518 40,000  Level FlightAware
04:19AM 36.5090 140.2890 246° West 454 522 40,000  Level FlightAware
04:20AM 36.4720 140.1840 246° West 458 527 40,000  Level FlightAware
04:21AM 36.4390 140.0910 246° West 460 529 40,000  Level FlightAware
04:21AM 36.4010 139.9860 246° West 460 529 40,000  Level FlightAware
04:22AM 36.3660 139.8870 246° West 460 529 40,000  Level FlightAware
04:23AM 36.3270 139.7780 246° West 461 531 40,000  Level FlightAware
04:24AM 36.2920 139.6800 246° West 460 529 40,000  Level FlightAware
04:24AM 36.2560 139.5800 246° West 459 528 40,000  Level FlightAware
04:25AM 36.2190 139.4770 246° West 460 529 40,000  Level FlightAware
04:26AM 36.1840 139.3810 246° West 460 529 40,000  Level FlightAware
04:26AM 36.1460 139.2750 246° West 459 528 40,000  Level FlightAware
04:27AM 36.1110 139.1800 246° West 459 528 40,000  Level FlightAware
04:28AM 36.0750 139.0820 246° West 458 527 40,000  Level FlightAware
04:28AM 36.0380 138.9800 246° West 459 528 40,000  Level FlightAware
04:29AM 35.9980 138.8710 246° West 458 527 40,000  Level FlightAware
04:30AM 35.9770 138.8140 246° West 458 527 40,000  Level FlightAware
04:31AM 35.9190 138.6580 245° Southwest 457 526 40,000  Level FlightAware
04:31AM 35.8820 138.5600 245° Southwest 457 526 40,000  Level FlightAware
04:32AM 35.8420 138.4540 245° Southwest 455 524 40,000  Level FlightAware
04:33AM 35.8080 138.3660 245° Southwest 453 521 40,000  Level FlightAware
04:34AM 35.7650 138.2540 245° Southwest 454 522 40,000  Level FlightAware
04:34AM 35.7300 138.1630 245° Southwest 454 522 40,000  Level FlightAware
04:35AM 35.6970 138.0770 245° Southwest 454 522 40,000  Level FlightAware
04:36AM 35.6460 137.9420 245° Southwest 452 520 40,000  Level FlightAware
04:37AM 35.6180 137.8310 253° West 446 513 40,000  Level FlightAware
04:37AM 35.5990 137.7310 257° West 445 512 40,000  Level FlightAware
04:38AM 35.5790 137.6180 258° West 450 518 40,000  Level FlightAware
04:39AM 35.5600 137.5180 257° West 448 516 40,000  Level FlightAware
04:39AM 35.5420 137.4230 257° West 447 514 40,000  Level FlightAware
04:40AM 35.5220 137.3190 257° West 449 517 40,000  Level FlightAware
04:41AM 35.5010 137.2110 257° West 451 519 40,000  Level FlightAware
04:41AM 35.4820 137.1120 257° West 451 519 40,000  Level FlightAware
04:42AM 35.4600 136.9990 257° West 450 518 40,000  Level FlightAware
04:43AM 35.4410 136.9000 257° West 449 517 40,000  Level FlightAware
04:44AM 35.4220 136.8010 257° West 448 516 40,000  Level FlightAware
04:44AM 35.4010 136.6930 257° West 446 513 40,000  Level FlightAware
04:45AM 35.3820 136.5940 257° West 444 511 40,000  Level FlightAware
04:46AM 35.3600 136.4830 256° West 441 507 40,000  Level FlightAware
04:46AM 35.3440 136.4020 256° West 440 506 40,000  Level FlightAware
04:47AM 35.3210 136.2850 256° West 436 502 40,000  Level FlightAware
04:48AM 35.3000 136.1830 256° West 431 496 40,000  Level FlightAware
04:48AM 35.2810 136.0850 257° West 428 493 40,000  Level FlightAware
04:49AM 35.2590 135.9770 256° West 430 495 40,000  Level FlightAware
04:50AM 35.2440 135.9040 256° West 429 494 40,000  Level FlightAware
04:51AM 35.2140 135.7530 256° West 429 494 40,000  Level FlightAware
04:52AM 35.1920 135.6490 256° West 429 494 40,000  Level FlightAware
04:52AM 35.1730 135.5560 256° West 431 496 40,000  Level FlightAware
04:53AM 35.1550 135.4690 256° West 430 495 40,000  Level FlightAware
04:54AM 35.1300 135.3490 256° West 430 495 40,000  Level FlightAware
04:54AM 35.1110 135.2540 256° West 429 494 40,000  Level FlightAware
04:55AM 35.0910 135.1590 256° West 430 495 40,000  Level FlightAware
04:56AM 35.0690 135.0560 255° West 430 495 40,000  Level FlightAware
04:56AM 35.0490 134.9610 256° West 430 495 40,000  Level FlightAware
04:57AM 35.0300 134.8710 256° West 431 496 40,000  Level FlightAware
04:58AM 35.0060 134.7610 255° West 433 498 40,000  Level FlightAware
04:58AM 34.9870 134.6680 256° West 437 503 40,000  Level FlightAware
04:59AM 34.9650 134.5580 256° West 437 503 40,000  Level FlightAware
05:00AM 34.9380 134.4210 257° West 438 504 40,000  Level FlightAware
05:01AM 34.9180 134.3180 257° West 438 504 40,000  Level FlightAware
05:02AM 34.8970 134.2120 256° West 438 504 40,000  Level FlightAware
05:02AM 34.8770 134.1150 256° West 438 504 40,000  Level FlightAware
05:03AM 34.8590 134.0260 256° West 438 504 40,000  Level FlightAware
05:04AM 34.8370 133.9150 256° West 438 504 40,000  Level FlightAware
05:05AM 34.8010 133.7450 256° West 440 506 40,000  Level FlightAware
05:06AM 34.7730 133.6140 255° West 440 506 40,000  Level FlightAware
05:07AM 34.7430 133.4830 254° West 441 507 40,000  Level FlightAware
05:07AM 34.7170 133.3930 251° West 444 511 40,000  Level FlightAware
05:08AM 34.6830 133.2890 248° West 446 513 40,000  Level FlightAware
05:09AM 34.6460 133.1830 247° West 448 516 40,000  Level FlightAware
05:10AM 34.6120 133.0810 248° West 447 514 40,000  Level FlightAware
05:10AM 34.5750 132.9710 248° West 447 514 40,000  Level FlightAware
05:11AM 34.5290 132.8340 248° West 445 512 40,000  Level FlightAware
05:12AM 34.4970 132.7380 248° West 442 509 40,000  Level FlightAware
05:13AM 34.4720 132.6630 248° West 442 509 40,000  Level FlightAware
05:13AM 34.4390 132.5650 248° West 442 509 40,000  Level FlightAware
05:14AM 34.4110 132.4840 247° West 442 509 40,000  Level FlightAware
05:14AM 34.3890 132.4180 248° West 443 510 40,000  Level FlightAware
05:15AM 34.3510 132.3070 248° West 447 514 40,000  Level FlightAware
05:16AM 34.3150 132.2020 247° West 447 514 40,000  Level FlightAware
05:17AM 34.2840 132.1100 248° West 448 516 40,000  Level FlightAware
05:17AM 34.2520 132.0180 247° West 450 518 40,000  Level FlightAware
05:18AM 34.2210 131.9270 248° West 450 518 40,000  Level FlightAware
05:19AM 34.1870 131.8310 247° West 451 519 40,000  Level FlightAware
05:19AM 34.1500 131.7240 247° West 452 520 40,000  Level FlightAware
05:20AM 34.1300 131.6660 247° West 452 520 40,000  Level FlightAware
05:21AM 34.0970 131.5720 247° West 453 521 40,000  Level FlightAware
05:21AM 34.0690 131.4910 247° West 453 521 40,000  Level FlightAware
05:22AM 34.0360 131.3980 247° West 453 521 40,000  Level FlightAware
05:22AM 34.0030 131.3040 247° West 453 521 40,000  Level FlightAware
05:23AM 33.9710 131.2130 247° West 455 524 40,000  Level FlightAware
05:24AM 33.9460 131.1420 247° West 456 525 40,000  Level FlightAware
05:24AM 33.9120 131.0480 246° West 460 529 40,000  Level FlightAware
05:25AM 33.8670 130.9180 247° West 461 531 40,000  Level FlightAware
05:26AM 33.8320 130.8230 246° West 463 533 40,000  Level FlightAware
05:26AM 33.7980 130.7270 247° West 466 536 40,000  Level FlightAware
05:27AM 33.7740 130.6590 247° West 467 537 40,000  Level FlightAware
05:28AM 33.7390 130.5640 246° West 467 537 40,000  Level FlightAware
05:28AM 33.7040 130.4650 247° West 468 539 40,000  Level FlightAware
05:29AM 33.6680 130.3670 246° West 471 542 40,000  Level FlightAware
05:30AM 33.6200 130.2210 248° West 466 536 40,000  Level FlightAware
05:31AM 33.5900 130.1260 249° West 468 539 40,000  Level FlightAware
05:31AM 33.5660 130.0500 249° West 467 537 40,000  Level FlightAware
05:32AM 33.5330 129.9460 249° West 468 539 40,000  Level FlightAware
05:33AM 33.4940 129.8200 250° West 467 537 40,000  Level FlightAware
05:33AM 33.4720 129.7510 249° West 466 536 40,000  Level FlightAware
05:34AM 33.4410 129.6540 249° West 466 536 40,000  Level FlightAware
05:35AM 33.4150 129.5740 249° West 466 536 40,000  Level FlightAware
05:35AM 33.3850 129.4820 249° West 466 536 40,000  Level FlightAware
05:36AM 33.3440 129.3530 249° West 466 536 40,000  Level FlightAware
05:37AM 33.3040 129.2300 249° West 466 536 40,000  Level FlightAware
05:37AM 33.2800 129.1560 249° West 466 536 40,000  Level FlightAware
05:38AM 33.2380 129.0300 248° West 470 541 40,000  Level FlightAware
05:39AM 33.2120 128.9520 248° West 470 541 40,000  Level FlightAware
05:40AM 33.1620 128.8050 248° West 470 541 40,000  Level FlightAware
05:41AM 33.1200 128.6800 248° West 470 541 40,000  Level FlightAware
05:42AM 33.0780 128.5570 248° West 470 541 40,000  Level FlightAware
05:43AM 33.0530 128.4820 248° West 470 541 40,000  Level FlightAware
05:43AM 33.0210 128.3880 248° West 470 541 40,000  Level FlightAware
05:44AM 32.9790 128.2630 248° West 470 541 40,000  Level FlightAware
05:45AM 32.9370 128.1400 248° West 470 541 40,000  Level FlightAware
05:46AM 32.9120 128.0670 248° West 470 541 40,000  Level FlightAware
05:47AM 32.8870 127.9910 249° West 470 541 40,000  Level FlightAware
05:48AM 32.8370 127.8440 248° West 470 541 40,000 -720 Level FlightAware
05:51AM 32.7406 127.4629 253° West  Level Estimated
05:52AM 32.7037 127.3184 253° West  Level Estimated
05:53AM 32.6666 127.1741 253° West  Level Estimated
05:54AM 32.6293 127.0298 253° West  Level Estimated
05:55AM 32.5919 126.8857 253° West  Level Estimated
05:56AM 32.5544 126.7417 253° West  Level Estimated
05:57AM 32.5166 126.5978 253° West  Level Estimated
05:58AM 32.4787 126.4540 253° West  Level Estimated
05:59AM 32.4407 126.3104 253° West  Level Estimated
06:00AM 32.4024 126.1668 253° West  Level Estimated
06:01AM 32.3640 126.0234 252° West  Level Estimated
06:02AM 32.3255 125.8801 252° West  Level Estimated
06:03AM 32.2868 125.7370 252° West  Level Estimated
06:04AM 32.2479 125.5939 252° West  Level Estimated
06:05AM 32.2088 125.4510 252° West  Level Estimated
06:06AM 32.1696 125.3082 252° West  Level Estimated
06:07AM 32.1303 125.1656 252° West  Level Estimated
06:08AM 32.0908 125.0230 252° West  Level Estimated
06:09AM 32.0511 124.8806 252° West  Level Estimated
06:10AM 32.0112 124.7383 252° West  Level Estimated
06:11AM 31.9712 124.5961 252° West  Level Estimated
06:12AM 31.9311 124.4540 252° West  Level Estimated
06:13AM 31.8908 124.3121 252° West  Level Estimated
06:14AM 31.8503 124.1703 251° West  Level Estimated
06:15AM 31.8097 124.0286 251° West  Level Estimated
06:16AM 31.7689 123.8871 251° West  Level Estimated
06:17AM 31.7280 123.7456 251° West  Level Estimated
06:18AM 31.6869 123.6043 251° West  Level Estimated
06:19AM 31.6456 123.4631 251° West  Level Estimated
06:20AM 31.6042 123.3221 251° West  Level Estimated
06:21AM 31.5626 123.1812 251° West  Level Estimated
06:22AM 31.5209 123.0404 251° West  Level Estimated
06:23AM 31.4791 122.8997 251° West  Level Estimated
06:24AM 31.4370 122.7591 251° West  Level Estimated
06:25AM 31.3949 122.6187 251° West  Level Estimated
06:26AM 31.3525 122.4784 251° West  Level Estimated
06:27AM 31.3100 122.3382 251° West  Level Estimated
06:27AM 31.2310 122.2560 250° West 277 319 11,800  Level FlightAware
06:28AM 31.2674 122.1982 250° West  Level Estimated
06:28AM 31.2190 122.1480 263° West 273 314 10,300  Level FlightAware
06:29AM 31.2246 122.0583 250° West  Level Estimated
06:29AM 31.2210 122.1040 273° West 273 314 10,100  Level FlightAware
06:30AM 31.2280 121.9850 274° West 274 315 10,000 -60 Descending FlightAware
06:31AM 31.2370 121.9090 278° West 276 318 10,000 -240 Level FlightAware
06:31AM 31.2390 121.8820 275° West 272 313 9,800 -300 Descending FlightAware
06:32AM 31.2400 121.8510 272° West 272 313 9,800 -540 Level FlightAware
06:33AM 31.2420 121.7630 272° West 234 269 9,100 -780 Descending FlightAware
06:33AM 31.2390 121.7550 246° West 223 257 8,900 -360 Descending FlightAware
06:34AM 31.2240 121.6970 253° West 223 257 8,700 -180 Descending FlightAware
06:35AM 31.2150 121.6620 253° West 223 257 8,700 -600 Level FlightAware
06:35AM 31.2350 121.6280 305° West 230 265 8,100 -1,380 Descending FlightAware
06:35AM 31.2450 121.6250 346° North 230 265 7,900 -1,200 Descending FlightAware
06:35AM 31.2650 121.6200 348° North 232 267 7,600 -900 Descending FlightAware
06:36AM 31.2850 121.6150 348° North 216 249 7,400 -900 Descending FlightAware
06:36AM 31.3060 121.6100 349° North 214 246 7,000 -1,080 Descending FlightAware
06:36AM 31.3240 121.6060 349° North 200 230 6,700 -1,080 Descending FlightAware
06:37AM 31.3530 121.6000 350° North 195 224 6,100 -1,080 Descending FlightAware
06:37AM 31.3720 121.5960 350° North 197 227 5,800 -840 Descending FlightAware
06:38AM 31.3950 121.5910 349° North 179 206 5,400 -960 Descending FlightAware
06:38AM 31.4150 121.5860 348° North 179 206 5,000 -1,200 Descending FlightAware
06:38AM 31.4290 121.5830 350° North 180 207 4,600 -1,200 Descending FlightAware
06:39AM 31.4470 121.5790 349° North 179 206 4,200 -600 Descending FlightAware
06:39AM 31.4670 121.6000 42° Northeast 199 229 4,100 -120 Descending FlightAware
06:40AM 31.4510 121.6420 114° Southeast 195 224 4,100  Level FlightAware
06:40AM 31.4410 121.6610 122° Southeast 199 229 4,100  Level FlightAware
06:41AM 31.4300 121.6770 129° Southeast 189 217 4,100  Level FlightAware
06:41AM 31.4220 121.6820 152° Southeast 194 223 4,100  Level FlightAware
06:41AM 31.4040 121.6880 164° South 185 213 4,100  Level FlightAware
06:42AM 31.3880 121.6950 160° South 187 215 4,100  Level FlightAware
06:42AM 31.3700 121.7020 162° South 186 214 4,100 -240 Level FlightAware
06:42AM 31.3420 121.7120 163° South 189 217 3,900 -600 Descending FlightAware
06:43AM 31.3270 121.7180 161° South 187 215 3,600 -1,020 Descending FlightAware
06:43AM 31.3120 121.7240 161° South 185 213 3,300 -540 Descending FlightAware
06:44AM 31.2830 121.7350 162° South 185 213 3,100 -720 Descending FlightAware
06:45AM 31.2140 121.7610 161° South 141 162 1,700 -900 Descending FlightAware
06:46AM 31.1428 121.7924 161° South  Level Estimated